sensor_id;sensor_type;location;lat;lon;timestamp;P1;durP1;ratioP1;P2;durP2;ratioP2
2538;SDS011;1280;49.760;9.664;2023-03-01T00:01:18;32.53;;;17.20;;
2538;SDS011;1280;49.760;9.664;2023-03-01T00:03:49;27.27;;;15.93;;
2538;SDS011;1280;49.760;9.664;2023-03-01T00:06:18;29.63;;;16.80;;
2538;SDS011;1280;49.760;9.664;2023-03-01T00:08:47;25.30;;;15.80;;
2538;SDS011;1280;49.760;9.664;2023-03-01T00:11:16;26.77;;;16.63;;
2538;SDS011;1280;49.760;9.664;2023-03-01T00:13:47;27.75;;;17.08;;
2538;SDS011;1280;49.760;9.664;2023-03-01T00:16:18;31.70;;;16.77;;
2538;SDS011;1280;49.760;9.664;2023-03-01T00:18:49;26.58;;;15.85;;
2538;SDS011;1280;49.760;9.664;2023-03-01T00:21:18;28.10;;;16.60;;
2538;SDS011;1280;49.760;9.664;2023-03-01T00:23:47;31.33;;;17.73;;
2538;SDS011;1280;49.760;9.664;2023-03-01T00:26:17;28.02;;;16.35;;
2538;SDS011;1280;49.760;9.664;2023-03-01T00:28:46;33.35;;;17.52;;
2538;SDS011;1280;49.760;9.664;2023-03-01T00:31:15;29.17;;;16.98;;
2538;SDS011;1280;49.760;9.664;2023-03-01T00:33:44;28.05;;;16.92;;
2538;SDS011;1280;49.760;9.664;2023-03-01T00:36:15;27.52;;;17.08;;
2538;SDS011;1280;49.760;9.664;2023-03-01T00:38:43;36.78;;;18.40;;
2538;SDS011;1280;49.760;9.664;2023-03-01T00:41:13;28.83;;;17.48;;
2538;SDS011;1280;49.760;9.664;2023-03-01T00:43:43;29.70;;;17.35;;
2538;SDS011;1280;49.760;9.664;2023-03-01T00:46:12;34.80;;;18.92;;
2538;SDS011;1280;49.760;9.664;2023-03-01T00:48:42;29.33;;;16.63;;
2538;SDS011;1280;49.760;9.664;2023-03-01T00:51:12;31.63;;;18.55;;
2538;SDS011;1280;49.760;9.664;2023-03-01T00:53:43;35.53;;;19.60;;
2538;SDS011;1280;49.760;9.664;2023-03-01T00:56:12;42.58;;;21.02;;
2538;SDS011;1280;49.760;9.664;2023-03-01T00:58:42;30.17;;;17.42;;
2538;SDS011;1280;49.760;9.664;2023-03-01T01:01:13;33.92;;;19.45;;
2538;SDS011;1280;49.760;9.664;2023-03-01T01:03:45;55.10;;;25.15;;
2538;SDS011;1280;49.760;9.664;2023-03-01T01:06:15;42.92;;;21.33;;
2538;SDS011;1280;49.760;9.664;2023-03-01T01:08:45;31.52;;;16.98;;
2538;SDS011;1280;49.760;9.664;2023-03-01T01:11:13;62.90;;;28.48;;
2538;SDS011;1280;49.760;9.664;2023-03-01T01:13:43;47.42;;;22.42;;
2538;SDS011;1280;49.760;9.664;2023-03-01T01:16:13;43.67;;;22.17;;
2538;SDS011;1280;49.760;9.664;2023-03-01T01:18:42;33.13;;;19.40;;
2538;SDS011;1280;49.760;9.664;2023-03-01T01:21:11;32.50;;;17.88;;
2538;SDS011;1280;49.760;9.664;2023-03-01T01:23:41;30.92;;;17.92;;
2538;SDS011;1280;49.760;9.664;2023-03-01T01:26:13;35.67;;;18.30;;
2538;SDS011;1280;49.760;9.664;2023-03-01T01:28:42;28.70;;;16.98;;
2538;SDS011;1280;49.760;9.664;2023-03-01T01:31:12;30.13;;;17.77;;
2538;SDS011;1280;49.760;9.664;2023-03-01T01:33:41;31.58;;;17.98;;
2538;SDS011;1280;49.760;9.664;2023-03-01T01:36:10;31.25;;;18.42;;
2538;SDS011;1280;49.760;9.664;2023-03-01T01:38:38;31.48;;;17.85;;
2538;SDS011;1280;49.760;9.664;2023-03-01T01:41:09;31.20;;;19.02;;
2538;SDS011;1280;49.760;9.664;2023-03-01T01:46:15;32.03;;;17.80;;
2538;SDS011;1280;49.760;9.664;2023-03-01T01:48:49;32.55;;;17.45;;
2538;SDS011;1280;49.760;9.664;2023-03-01T01:51:23;35.20;;;17.00;;
2538;SDS011;1280;49.760;9.664;2023-03-01T01:53:55;28.08;;;16.20;;
2538;SDS011;1280;49.760;9.664;2023-03-01T01:56:27;30.50;;;16.77;;
2538;SDS011;1280;49.760;9.664;2023-03-01T01:58:59;36.78;;;18.77;;
2538;SDS011;1280;49.760;9.664;2023-03-01T02:01:28;28.52;;;17.75;;
2538;SDS011;1280;49.760;9.664;2023-03-01T02:03:56;30.20;;;17.95;;
2538;SDS011;1280;49.760;9.664;2023-03-01T02:06:28;31.88;;;18.92;;
2538;SDS011;1280;49.760;9.664;2023-03-01T02:08:59;29.08;;;16.98;;
2538;SDS011;1280;49.760;9.664;2023-03-01T02:11:32;31.75;;;18.20;;
2538;SDS011;1280;49.760;9.664;2023-03-01T02:14:05;29.30;;;17.80;;
2538;SDS011;1280;49.760;9.664;2023-03-01T02:16:35;33.45;;;16.45;;
2538;SDS011;1280;49.760;9.664;2023-03-01T02:19:03;27.40;;;17.02;;
2538;SDS011;1280;49.760;9.664;2023-03-01T02:21:36;28.70;;;16.60;;
2538;SDS011;1280;49.760;9.664;2023-03-01T02:24:11;30.42;;;17.40;;
2538;SDS011;1280;49.760;9.664;2023-03-01T02:26:51;31.05;;;17.58;;
2538;SDS011;1280;49.760;9.664;2023-03-01T02:29:23;30.42;;;15.82;;
2538;SDS011;1280;49.760;9.664;2023-03-01T02:31:52;28.92;;;16.67;;
2538;SDS011;1280;49.760;9.664;2023-03-01T02:34:25;30.33;;;17.13;;
2538;SDS011;1280;49.760;9.664;2023-03-01T02:36:56;27.70;;;17.60;;
2538;SDS011;1280;49.760;9.664;2023-03-01T02:39:30;30.02;;;17.27;;
2538;SDS011;1280;49.760;9.664;2023-03-01T02:42:01;30.40;;;16.85;;
2538;SDS011;1280;49.760;9.664;2023-03-01T02:44:32;31.58;;;17.55;;
2538;SDS011;1280;49.760;9.664;2023-03-01T02:47:01;41.67;;;23.42;;
2538;SDS011;1280;49.760;9.664;2023-03-01T02:49:31;35.05;;;19.50;;
2538;SDS011;1280;49.760;9.664;2023-03-01T02:52:04;33.80;;;18.17;;
2538;SDS011;1280;49.760;9.664;2023-03-01T02:55:07;33.17;;;17.20;;
2538;SDS011;1280;49.760;9.664;2023-03-01T02:57:39;30.88;;;18.42;;
2538;SDS011;1280;49.760;9.664;2023-03-01T03:00:11;39.80;;;19.40;;
2538;SDS011;1280;49.760;9.664;2023-03-01T03:02:46;32.95;;;19.08;;
2538;SDS011;1280;49.760;9.664;2023-03-01T03:08:00;48.15;;;24.05;;
2538;SDS011;1280;49.760;9.664;2023-03-01T03:10:35;45.65;;;23.77;;
2538;SDS011;1280;49.760;9.664;2023-03-01T03:13:07;31.50;;;18.50;;
2538;SDS011;1280;49.760;9.664;2023-03-01T03:15:39;31.40;;;18.40;;
2538;SDS011;1280;49.760;9.664;2023-03-01T03:18:09;47.70;;;24.40;;
2538;SDS011;1280;49.760;9.664;2023-03-01T03:20:39;40.70;;;21.15;;
2538;SDS011;1280;49.760;9.664;2023-03-01T03:23:08;29.27;;;17.50;;
2538;SDS011;1280;49.760;9.664;2023-03-01T03:25:37;33.25;;;18.25;;
2538;SDS011;1280;49.760;9.664;2023-03-01T03:28:05;28.35;;;17.30;;
2538;SDS011;1280;49.760;9.664;2023-03-01T03:30:37;28.10;;;17.83;;
2538;SDS011;1280;49.760;9.664;2023-03-01T03:33:08;33.72;;;18.20;;
2538;SDS011;1280;49.760;9.664;2023-03-01T03:35:39;38.08;;;21.90;;
2538;SDS011;1280;49.760;9.664;2023-03-01T03:38:10;35.85;;;19.35;;
2538;SDS011;1280;49.760;9.664;2023-03-01T03:40:44;29.95;;;16.85;;
2538;SDS011;1280;49.760;9.664;2023-03-01T03:43:14;34.38;;;18.50;;
2538;SDS011;1280;49.760;9.664;2023-03-01T03:45:44;28.95;;;16.75;;
2538;SDS011;1280;49.760;9.664;2023-03-01T03:48:14;35.80;;;18.58;;
2538;SDS011;1280;49.760;9.664;2023-03-01T03:50:47;31.58;;;18.95;;
2538;SDS011;1280;49.760;9.664;2023-03-01T03:53:17;31.20;;;18.27;;
2538;SDS011;1280;49.760;9.664;2023-03-01T03:55:46;32.78;;;17.75;;
2538;SDS011;1280;49.760;9.664;2023-03-01T03:58:15;30.67;;;18.67;;
2538;SDS011;1280;49.760;9.664;2023-03-01T04:00:48;32.58;;;18.13;;
2538;SDS011;1280;49.760;9.664;2023-03-01T04:03:17;30.45;;;17.58;;
2538;SDS011;1280;49.760;9.664;2023-03-01T04:08:31;35.55;;;18.65;;
2538;SDS011;1280;49.760;9.664;2023-03-01T04:11:01;29.67;;;17.00;;
2538;SDS011;1280;49.760;9.664;2023-03-01T04:13:51;38.70;;;21.00;;
2538;SDS011;1280;49.760;9.664;2023-03-01T04:16:21;46.45;;;24.63;;
2538;SDS011;1280;49.760;9.664;2023-03-01T04:18:49;43.33;;;22.17;;
2538;SDS011;1280;49.760;9.664;2023-03-01T04:21:18;38.40;;;20.63;;
2538;SDS011;1280;49.760;9.664;2023-03-01T04:23:46;36.90;;;19.17;;
2538;SDS011;1280;49.760;9.664;2023-03-01T04:26:14;37.17;;;18.80;;
2538;SDS011;1280;49.760;9.664;2023-03-01T04:28:42;45.65;;;20.55;;
2538;SDS011;1280;49.760;9.664;2023-03-01T04:31:13;45.28;;;21.80;;
2538;SDS011;1280;49.760;9.664;2023-03-01T04:33:46;40.85;;;21.80;;
2538;SDS011;1280;49.760;9.664;2023-03-01T04:36:18;35.80;;;19.08;;
2538;SDS011;1280;49.760;9.664;2023-03-01T04:38:47;33.80;;;19.50;;
2538;SDS011;1280;49.760;9.664;2023-03-01T04:41:16;35.25;;;19.40;;
2538;SDS011;1280;49.760;9.664;2023-03-01T04:43:45;30.55;;;18.17;;
2538;SDS011;1280;49.760;9.664;2023-03-01T04:46:15;30.55;;;18.55;;
2538;SDS011;1280;49.760;9.664;2023-03-01T04:48:47;28.27;;;16.75;;
2538;SDS011;1280;49.760;9.664;2023-03-01T04:51:15;29.17;;;17.75;;
2538;SDS011;1280;49.760;9.664;2023-03-01T04:53:44;33.47;;;18.15;;
2538;SDS011;1280;49.760;9.664;2023-03-01T04:56:12;34.85;;;18.55;;
2538;SDS011;1280;49.760;9.664;2023-03-01T04:58:41;33.67;;;18.98;;
2538;SDS011;1280;49.760;9.664;2023-03-01T05:01:10;35.50;;;18.70;;
2538;SDS011;1280;49.760;9.664;2023-03-01T05:03:42;33.15;;;18.05;;
2538;SDS011;1280;49.760;9.664;2023-03-01T05:06:12;28.42;;;17.80;;
2538;SDS011;1280;49.760;9.664;2023-03-01T05:08:41;31.05;;;17.48;;
2538;SDS011;1280;49.760;9.664;2023-03-01T05:11:09;32.67;;;19.52;;
2538;SDS011;1280;49.760;9.664;2023-03-01T05:13:38;32.20;;;18.63;;
2538;SDS011;1280;49.760;9.664;2023-03-01T05:16:07;30.02;;;19.25;;
2538;SDS011;1280;49.760;9.664;2023-03-01T05:21:25;31.02;;;17.75;;
2538;SDS011;1280;49.760;9.664;2023-03-01T05:23:53;30.50;;;17.45;;
2538;SDS011;1280;49.760;9.664;2023-03-01T05:26:22;31.92;;;19.23;;
2538;SDS011;1280;49.760;9.664;2023-03-01T05:28:54;29.33;;;17.17;;
2538;SDS011;1280;49.760;9.664;2023-03-01T05:31:25;33.05;;;17.08;;
2538;SDS011;1280;49.760;9.664;2023-03-01T05:33:53;34.75;;;18.13;;
2538;SDS011;1280;49.760;9.664;2023-03-01T05:36:21;29.55;;;16.95;;
2538;SDS011;1280;49.760;9.664;2023-03-01T05:38:56;37.17;;;18.58;;
2538;SDS011;1280;49.760;9.664;2023-03-01T05:41:24;30.00;;;17.70;;
2538;SDS011;1280;49.760;9.664;2023-03-01T05:43:52;30.48;;;17.92;;
2538;SDS011;1280;49.760;9.664;2023-03-01T05:46:20;32.15;;;19.05;;
2538;SDS011;1280;49.760;9.664;2023-03-01T05:48:50;46.83;;;22.80;;
2538;SDS011;1280;49.760;9.664;2023-03-01T05:51:18;39.88;;;21.90;;
2538;SDS011;1280;49.760;9.664;2023-03-01T05:53:48;37.20;;;19.98;;
2538;SDS011;1280;49.760;9.664;2023-03-01T05:56:17;38.85;;;22.83;;
2538;SDS011;1280;49.760;9.664;2023-03-01T05:58:45;35.13;;;20.00;;
2538;SDS011;1280;49.760;9.664;2023-03-01T06:01:15;35.03;;;19.98;;
2538;SDS011;1280;49.760;9.664;2023-03-01T06:03:43;35.90;;;19.45;;
2538;SDS011;1280;49.760;9.664;2023-03-01T06:06:11;35.95;;;19.65;;
2538;SDS011;1280;49.760;9.664;2023-03-01T06:08:39;37.30;;;19.67;;
2538;SDS011;1280;49.760;9.664;2023-03-01T06:11:07;29.65;;;19.40;;
2538;SDS011;1280;49.760;9.664;2023-03-01T06:13:36;34.42;;;19.20;;
2538;SDS011;1280;49.760;9.664;2023-03-01T06:16:05;49.78;;;26.83;;
2538;SDS011;1280;49.760;9.664;2023-03-01T06:18:36;41.80;;;22.25;;
2538;SDS011;1280;49.760;9.664;2023-03-01T06:21:05;39.78;;;22.02;;
2538;SDS011;1280;49.760;9.664;2023-03-01T06:23:35;48.03;;;24.83;;
2538;SDS011;1280;49.760;9.664;2023-03-01T06:26:07;31.80;;;19.15;;
2538;SDS011;1280;49.760;9.664;2023-03-01T06:28:40;31.70;;;18.85;;
2538;SDS011;1280;49.760;9.664;2023-03-01T06:31:09;34.95;;;19.52;;
2538;SDS011;1280;49.760;9.664;2023-03-01T06:33:37;36.38;;;19.42;;
2538;SDS011;1280;49.760;9.664;2023-03-01T06:36:05;30.58;;;17.67;;
2538;SDS011;1280;49.760;9.664;2023-03-01T06:38:34;32.30;;;18.52;;
2538;SDS011;1280;49.760;9.664;2023-03-01T06:41:02;36.08;;;20.17;;
2538;SDS011;1280;49.760;9.664;2023-03-01T06:43:30;41.20;;;21.02;;
2538;SDS011;1280;49.760;9.664;2023-03-01T06:45:59;37.67;;;21.25;;
2538;SDS011;1280;49.760;9.664;2023-03-01T06:48:31;44.85;;;23.92;;
2538;SDS011;1280;49.760;9.664;2023-03-01T06:51:00;41.85;;;24.77;;
2538;SDS011;1280;49.760;9.664;2023-03-01T06:53:28;47.65;;;24.80;;
2538;SDS011;1280;49.760;9.664;2023-03-01T06:55:57;49.00;;;24.05;;
2538;SDS011;1280;49.760;9.664;2023-03-01T06:58:26;63.92;;;29.33;;
2538;SDS011;1280;49.760;9.664;2023-03-01T07:00:54;51.25;;;28.15;;
2538;SDS011;1280;49.760;9.664;2023-03-01T07:03:23;41.45;;;22.83;;
2538;SDS011;1280;49.760;9.664;2023-03-01T07:05:51;36.13;;;21.02;;
2538;SDS011;1280;49.760;9.664;2023-03-01T07:08:19;35.30;;;20.08;;
2538;SDS011;1280;49.760;9.664;2023-03-01T07:10:47;41.75;;;21.90;;
2538;SDS011;1280;49.760;9.664;2023-03-01T07:13:17;35.92;;;20.52;;
2538;SDS011;1280;49.760;9.664;2023-03-01T07:15:45;38.75;;;20.98;;
2538;SDS011;1280;49.760;9.664;2023-03-01T07:18:13;28.25;;;17.65;;
2538;SDS011;1280;49.760;9.664;2023-03-01T07:20:43;34.53;;;18.73;;
2538;SDS011;1280;49.760;9.664;2023-03-01T07:23:11;33.28;;;19.63;;
2538;SDS011;1280;49.760;9.664;2023-03-01T07:25:39;32.55;;;18.92;;
2538;SDS011;1280;49.760;9.664;2023-03-01T07:28:06;33.55;;;19.85;;
2538;SDS011;1280;49.760;9.664;2023-03-01T07:30:34;36.83;;;21.67;;
2538;SDS011;1280;49.760;9.664;2023-03-01T07:33:02;30.63;;;18.55;;
2538;SDS011;1280;49.760;9.664;2023-03-01T07:35:30;34.92;;;18.80;;
2538;SDS011;1280;49.760;9.664;2023-03-01T07:38:01;32.47;;;19.55;;
2538;SDS011;1280;49.760;9.664;2023-03-01T07:40:29;31.70;;;18.17;;
2538;SDS011;1280;49.760;9.664;2023-03-01T07:42:57;35.72;;;19.20;;
2538;SDS011;1280;49.760;9.664;2023-03-01T07:45:25;31.33;;;18.40;;
2538;SDS011;1280;49.760;9.664;2023-03-01T07:47:53;33.95;;;18.85;;
2538;SDS011;1280;49.760;9.664;2023-03-01T07:50:22;32.92;;;18.67;;
2538;SDS011;1280;49.760;9.664;2023-03-01T07:52:51;36.75;;;21.45;;
2538;SDS011;1280;49.760;9.664;2023-03-01T07:55:20;35.67;;;18.40;;
2538;SDS011;1280;49.760;9.664;2023-03-01T07:57:48;39.03;;;21.52;;
2538;SDS011;1280;49.760;9.664;2023-03-01T08:00:16;35.67;;;19.20;;
2538;SDS011;1280;49.760;9.664;2023-03-01T08:02:45;37.00;;;21.48;;
2538;SDS011;1280;49.760;9.664;2023-03-01T08:05:13;39.13;;;21.38;;
2538;SDS011;1280;49.760;9.664;2023-03-01T08:07:41;29.55;;;18.10;;
2538;SDS011;1280;49.760;9.664;2023-03-01T08:10:09;35.55;;;18.90;;
2538;SDS011;1280;49.760;9.664;2023-03-01T08:12:39;31.27;;;18.35;;
2538;SDS011;1280;49.760;9.664;2023-03-01T08:15:08;36.80;;;20.60;;
2538;SDS011;1280;49.760;9.664;2023-03-01T08:17:38;32.90;;;18.17;;
2538;SDS011;1280;49.760;9.664;2023-03-01T08:20:06;30.75;;;19.15;;
2538;SDS011;1280;49.760;9.664;2023-03-01T08:22:38;30.10;;;17.67;;
2538;SDS011;1280;49.760;9.664;2023-03-01T08:25:06;30.50;;;17.83;;
2538;SDS011;1280;49.760;9.664;2023-03-01T08:27:35;36.47;;;21.02;;
2538;SDS011;1280;49.760;9.664;2023-03-01T08:30:05;30.67;;;17.33;;
2538;SDS011;1280;49.760;9.664;2023-03-01T08:32:37;32.70;;;18.02;;
2538;SDS011;1280;49.760;9.664;2023-03-01T08:35:06;31.58;;;18.67;;
2538;SDS011;1280;49.760;9.664;2023-03-01T08:37:34;33.78;;;18.23;;
2538;SDS011;1280;49.760;9.664;2023-03-01T08:40:03;31.45;;;17.52;;
2538;SDS011;1280;49.760;9.664;2023-03-01T08:42:33;31.35;;;19.00;;
2538;SDS011;1280;49.760;9.664;2023-03-01T08:45:01;32.78;;;19.10;;
2538;SDS011;1280;49.760;9.664;2023-03-01T08:47:30;31.25;;;19.17;;
2538;SDS011;1280;49.760;9.664;2023-03-01T08:49:59;30.95;;;18.05;;
2538;SDS011;1280;49.760;9.664;2023-03-01T08:52:27;40.00;;;19.38;;
2538;SDS011;1280;49.760;9.664;2023-03-01T08:54:56;36.03;;;20.42;;
2538;SDS011;1280;49.760;9.664;2023-03-01T08:57:24;32.42;;;20.08;;
2538;SDS011;1280;49.760;9.664;2023-03-01T09:00:31;32.95;;;19.95;;
2538;SDS011;1280;49.760;9.664;2023-03-01T09:02:44;33.15;;;20.33;;
2538;SDS011;1280;49.760;9.664;2023-03-01T09:05:12;32.17;;;18.88;;
2538;SDS011;1280;49.760;9.664;2023-03-01T09:07:41;33.20;;;19.90;;
2538;SDS011;1280;49.760;9.664;2023-03-01T09:10:09;35.65;;;20.70;;
2538;SDS011;1280;49.760;9.664;2023-03-01T09:12:38;32.60;;;19.08;;
2538;SDS011;1280;49.760;9.664;2023-03-01T09:15:06;29.88;;;18.90;;
2538;SDS011;1280;49.760;9.664;2023-03-01T09:17:35;38.65;;;20.48;;
2538;SDS011;1280;49.760;9.664;2023-03-01T09:20:05;36.70;;;19.02;;
2538;SDS011;1280;49.760;9.664;2023-03-01T09:22:33;35.45;;;20.00;;
2538;SDS011;1280;49.760;9.664;2023-03-01T09:25:01;36.05;;;20.70;;
2538;SDS011;1280;49.760;9.664;2023-03-01T09:27:30;37.50;;;21.55;;
2538;SDS011;1280;49.760;9.664;2023-03-01T09:30:36;39.38;;;20.70;;
2538;SDS011;1280;49.760;9.664;2023-03-01T09:32:47;33.67;;;20.95;;
2538;SDS011;1280;49.760;9.664;2023-03-01T09:35:16;31.65;;;18.23;;
2538;SDS011;1280;49.760;9.664;2023-03-01T09:37:46;30.70;;;18.55;;
2538;SDS011;1280;49.760;9.664;2023-03-01T09:40:17;35.38;;;19.20;;
2538;SDS011;1280;49.760;9.664;2023-03-01T09:42:49;34.50;;;19.77;;
2538;SDS011;1280;49.760;9.664;2023-03-01T09:45:24;39.40;;;20.27;;
2538;SDS011;1280;49.760;9.664;2023-03-01T09:47:55;37.90;;;19.52;;
2538;SDS011;1280;49.760;9.664;2023-03-01T09:50:26;34.65;;;19.67;;
2538;SDS011;1280;49.760;9.664;2023-03-01T09:53:00;40.63;;;20.60;;
2538;SDS011;1280;49.760;9.664;2023-03-01T09:55:31;43.38;;;20.58;;
2538;SDS011;1280;49.760;9.664;2023-03-01T09:58:06;31.63;;;18.60;;
2538;SDS011;1280;49.760;9.664;2023-03-01T10:00:57;34.67;;;19.30;;
2538;SDS011;1280;49.760;9.664;2023-03-01T10:03:31;32.00;;;18.80;;
2538;SDS011;1280;49.760;9.664;2023-03-01T10:06:09;32.47;;;19.33;;
2538;SDS011;1280;49.760;9.664;2023-03-01T10:09:00;32.40;;;19.00;;
2538;SDS011;1280;49.760;9.664;2023-03-01T10:11:31;31.70;;;19.35;;
2538;SDS011;1280;49.760;9.664;2023-03-01T10:14:04;31.83;;;19.98;;
2538;SDS011;1280;49.760;9.664;2023-03-01T10:16:41;37.85;;;19.30;;
2538;SDS011;1280;49.760;9.664;2023-03-01T10:19:17;36.00;;;20.80;;
2538;SDS011;1280;49.760;9.664;2023-03-01T10:21:51;31.45;;;19.08;;
2538;SDS011;1280;49.760;9.664;2023-03-01T10:24:20;31.95;;;18.85;;
2538;SDS011;1280;49.760;9.664;2023-03-01T10:26:51;32.42;;;20.23;;
2538;SDS011;1280;49.760;9.664;2023-03-01T10:29:23;33.20;;;20.02;;
2538;SDS011;1280;49.760;9.664;2023-03-01T10:31:58;37.13;;;20.13;;
2538;SDS011;1280;49.760;9.664;2023-03-01T10:34:27;31.75;;;18.55;;
2538;SDS011;1280;49.760;9.664;2023-03-01T10:37:00;35.22;;;20.25;;
2538;SDS011;1280;49.760;9.664;2023-03-01T10:39:36;31.52;;;18.95;;
2538;SDS011;1280;49.760;9.664;2023-03-01T10:42:04;32.65;;;19.30;;
2538;SDS011;1280;49.760;9.664;2023-03-01T10:44:39;28.00;;;18.30;;
2538;SDS011;1280;49.760;9.664;2023-03-01T10:47:18;31.17;;;19.33;;
2538;SDS011;1280;49.760;9.664;2023-03-01T10:49:51;45.47;;;27.73;;
2538;SDS011;1280;49.760;9.664;2023-03-01T10:52:23;30.33;;;18.88;;
2538;SDS011;1280;49.760;9.664;2023-03-01T10:54:53;35.00;;;18.98;;
2538;SDS011;1280;49.760;9.664;2023-03-01T10:57:29;35.30;;;19.75;;
2538;SDS011;1280;49.760;9.664;2023-03-01T11:00:16;34.53;;;19.02;;
2538;SDS011;1280;49.760;9.664;2023-03-01T11:02:50;34.67;;;19.73;;
2538;SDS011;1280;49.760;9.664;2023-03-01T11:05:30;32.28;;;18.88;;
2538;SDS011;1280;49.760;9.664;2023-03-01T11:08:02;31.77;;;19.88;;
2538;SDS011;1280;49.760;9.664;2023-03-01T11:10:31;32.13;;;19.50;;
2538;SDS011;1280;49.760;9.664;2023-03-01T11:13:07;30.42;;;19.23;;
2538;SDS011;1280;49.760;9.664;2023-03-01T11:15:40;31.08;;;18.15;;
2538;SDS011;1280;49.760;9.664;2023-03-01T11:18:18;34.70;;;19.65;;
2538;SDS011;1280;49.760;9.664;2023-03-01T11:20:56;31.75;;;19.52;;
2538;SDS011;1280;49.760;9.664;2023-03-01T11:23:29;31.85;;;19.20;;
2538;SDS011;1280;49.760;9.664;2023-03-01T11:25:58;34.05;;;18.73;;
2538;SDS011;1280;49.760;9.664;2023-03-01T11:28:30;32.30;;;19.27;;
2538;SDS011;1280;49.760;9.664;2023-03-01T11:31:04;33.17;;;20.00;;
2538;SDS011;1280;49.760;9.664;2023-03-01T11:33:37;33.03;;;19.23;;
2538;SDS011;1280;49.760;9.664;2023-03-01T11:36:13;30.17;;;19.15;;
2538;SDS011;1280;49.760;9.664;2023-03-01T11:38:48;31.83;;;18.92;;
2538;SDS011;1280;49.760;9.664;2023-03-01T11:41:18;30.50;;;19.50;;
2538;SDS011;1280;49.760;9.664;2023-03-01T11:43:49;35.58;;;19.48;;
2538;SDS011;1280;49.760;9.664;2023-03-01T11:46:32;35.80;;;19.55;;
2538;SDS011;1280;49.760;9.664;2023-03-01T11:49:30;31.20;;;19.33;;
2538;SDS011;1280;49.760;9.664;2023-03-01T11:52:15;43.90;;;22.42;;
2538;SDS011;1280;49.760;9.664;2023-03-01T11:54:54;33.08;;;18.42;;
2538;SDS011;1280;49.760;9.664;2023-03-01T11:57:37;30.02;;;18.80;;
2538;SDS011;1280;49.760;9.664;2023-03-01T12:00:16;30.27;;;18.77;;
2538;SDS011;1280;49.760;9.664;2023-03-01T12:02:58;31.00;;;18.38;;
2538;SDS011;1280;49.760;9.664;2023-03-01T12:05:47;28.85;;;16.58;;
2538;SDS011;1280;49.760;9.664;2023-03-01T12:08:34;35.17;;;18.40;;
2538;SDS011;1280;49.760;9.664;2023-03-01T12:11:09;32.00;;;19.10;;
2538;SDS011;1280;49.760;9.664;2023-03-01T12:14:05;36.30;;;18.27;;
2538;SDS011;1280;49.760;9.664;2023-03-01T12:16:57;33.60;;;17.77;;
2538;SDS011;1280;49.760;9.664;2023-03-01T12:19:33;37.42;;;21.35;;
2538;SDS011;1280;49.760;9.664;2023-03-01T12:22:14;30.30;;;18.60;;
2538;SDS011;1280;49.760;9.664;2023-03-01T12:27:50;36.35;;;18.45;;
2538;SDS011;1280;49.760;9.664;2023-03-01T12:30:38;29.60;;;16.73;;
2538;SDS011;1280;49.760;9.664;2023-03-01T12:33:30;35.17;;;17.60;;
2538;SDS011;1280;49.760;9.664;2023-03-01T12:39:12;40.05;;;22.02;;
2538;SDS011;1280;49.760;9.664;2023-03-01T12:41:51;30.10;;;17.80;;
2538;SDS011;1280;49.760;9.664;2023-03-01T12:47:26;31.52;;;17.67;;
2538;SDS011;1280;49.760;9.664;2023-03-01T12:50:11;26.05;;;15.88;;
2538;SDS011;1280;49.760;9.664;2023-03-01T12:52:47;30.52;;;16.02;;
2538;SDS011;1280;49.760;9.664;2023-03-01T12:55:23;29.55;;;17.67;;
2538;SDS011;1280;49.760;9.664;2023-03-01T12:58:00;28.60;;;16.02;;
2538;SDS011;1280;49.760;9.664;2023-03-01T13:00:37;36.17;;;20.67;;
2538;SDS011;1280;49.760;9.664;2023-03-01T13:03:18;35.05;;;18.55;;
2538;SDS011;1280;49.760;9.664;2023-03-01T13:05:56;33.67;;;20.00;;
2538;SDS011;1280;49.760;9.664;2023-03-01T13:08:33;36.53;;;19.53;;
2538;SDS011;1280;49.760;9.664;2023-03-01T13:11:07;27.83;;;17.90;;
2538;SDS011;1280;49.760;9.664;2023-03-01T13:13:43;41.92;;;22.00;;
2538;SDS011;1280;49.760;9.664;2023-03-01T13:16:38;28.10;;;16.15;;
2538;SDS011;1280;49.760;9.664;2023-03-01T13:19:10;37.87;;;19.63;;
2538;SDS011;1280;49.760;9.664;2023-03-01T13:21:42;33.97;;;18.60;;
2538;SDS011;1280;49.760;9.664;2023-03-01T13:24:25;30.27;;;16.85;;
2538;SDS011;1280;49.760;9.664;2023-03-01T13:27:09;27.40;;;16.85;;
2538;SDS011;1280;49.760;9.664;2023-03-01T13:29:55;26.02;;;15.55;;
2538;SDS011;1280;49.760;9.664;2023-03-01T13:32:27;33.28;;;18.40;;
2538;SDS011;1280;49.760;9.664;2023-03-01T13:35:40;26.00;;;15.88;;
2538;SDS011;1280;49.760;9.664;2023-03-01T13:41:12;25.43;;;15.47;;
2538;SDS011;1280;49.760;9.664;2023-03-01T13:43:41;25.52;;;15.73;;
2538;SDS011;1280;49.760;9.664;2023-03-01T13:46:11;26.60;;;16.92;;
2538;SDS011;1280;49.760;9.664;2023-03-01T13:48:47;30.95;;;16.98;;
2538;SDS011;1280;49.760;9.664;2023-03-01T13:51:20;22.80;;;14.90;;
2538;SDS011;1280;49.760;9.664;2023-03-01T13:53:51;32.13;;;16.65;;
2538;SDS011;1280;49.760;9.664;2023-03-01T13:56:21;25.07;;;14.20;;
2538;SDS011;1280;49.760;9.664;2023-03-01T13:58:52;33.35;;;18.80;;
2538;SDS011;1280;49.760;9.664;2023-03-01T14:01:23;25.03;;;16.60;;
2538;SDS011;1280;49.760;9.664;2023-03-01T14:03:54;24.73;;;15.40;;
2538;SDS011;1280;49.760;9.664;2023-03-01T14:06:24;26.43;;;14.00;;
2538;SDS011;1280;49.760;9.664;2023-03-01T14:09:00;26.67;;;14.73;;
2538;SDS011;1280;49.760;9.664;2023-03-01T14:11:41;31.25;;;16.30;;
2538;SDS011;1280;49.760;9.664;2023-03-01T14:14:29;25.00;;;13.50;;
2538;SDS011;1280;49.760;9.664;2023-03-01T14:17:19;23.70;;;14.77;;
2538;SDS011;1280;49.760;9.664;2023-03-01T14:20:07;28.47;;;16.30;;
2538;SDS011;1280;49.760;9.664;2023-03-01T14:22:40;25.23;;;15.52;;
2538;SDS011;1280;49.760;9.664;2023-03-01T14:25:23;30.10;;;15.00;;
2538;SDS011;1280;49.760;9.664;2023-03-01T14:27:55;25.10;;;14.43;;
2538;SDS011;1280;49.760;9.664;2023-03-01T14:30:26;25.30;;;15.40;;
2538;SDS011;1280;49.760;9.664;2023-03-01T14:32:59;26.77;;;14.40;;
2538;SDS011;1280;49.760;9.664;2023-03-01T14:35:30;21.57;;;14.07;;
2538;SDS011;1280;49.760;9.664;2023-03-01T14:38:00;25.93;;;15.10;;
2538;SDS011;1280;49.760;9.664;2023-03-01T14:40:28;24.70;;;16.07;;
2538;SDS011;1280;49.760;9.664;2023-03-01T14:42:59;27.25;;;15.95;;
2538;SDS011;1280;49.760;9.664;2023-03-01T14:45:29;24.88;;;15.25;;
2538;SDS011;1280;49.760;9.664;2023-03-01T14:47:58;24.33;;;15.45;;
2538;SDS011;1280;49.760;9.664;2023-03-01T14:50:30;26.27;;;15.00;;
2538;SDS011;1280;49.760;9.664;2023-03-01T14:53:01;22.30;;;14.23;;
2538;SDS011;1280;49.760;9.664;2023-03-01T14:55:31;23.43;;;15.40;;
2538;SDS011;1280;49.760;9.664;2023-03-01T14:58:03;25.83;;;15.67;;
2538;SDS011;1280;49.760;9.664;2023-03-01T15:00:32;26.10;;;15.43;;
2538;SDS011;1280;49.760;9.664;2023-03-01T15:03:04;27.73;;;16.17;;
2538;SDS011;1280;49.760;9.664;2023-03-01T15:05:37;23.17;;;15.00;;
2538;SDS011;1280;49.760;9.664;2023-03-01T15:08:07;25.80;;;15.57;;
2538;SDS011;1280;49.760;9.664;2023-03-01T15:10:55;27.00;;;16.27;;
2538;SDS011;1280;49.760;9.664;2023-03-01T15:13:26;28.80;;;18.10;;
2538;SDS011;1280;49.760;9.664;2023-03-01T15:16:01;26.27;;;15.90;;
2538;SDS011;1280;49.760;9.664;2023-03-01T15:18:33;29.13;;;14.57;;
2538;SDS011;1280;49.760;9.664;2023-03-01T15:21:09;19.97;;;14.00;;
2538;SDS011;1280;49.760;9.664;2023-03-01T15:23:47;22.93;;;14.50;;
2538;SDS011;1280;49.760;9.664;2023-03-01T15:26:23;26.70;;;13.73;;
2538;SDS011;1280;49.760;9.664;2023-03-01T15:28:54;27.15;;;15.05;;
2538;SDS011;1280;49.760;9.664;2023-03-01T15:31:26;27.37;;;14.40;;
2538;SDS011;1280;49.760;9.664;2023-03-01T15:34:09;22.07;;;14.30;;
2538;SDS011;1280;49.760;9.664;2023-03-01T15:36:48;24.53;;;13.70;;
2538;SDS011;1280;49.760;9.664;2023-03-01T15:39:27;24.77;;;16.13;;
2538;SDS011;1280;49.760;9.664;2023-03-01T15:42:09;25.80;;;15.17;;